createdAt,value
2022-08-17T00:00:11.974Z,155591.56
2022-08-17T00:03:02.750Z,155572.03
2022-08-17T00:05:36.851Z,155548.59
2022-08-17T00:08:05.281Z,155509.59
2022-08-17T00:10:33.180Z,155470.50
2022-08-17T00:13:01.123Z,155460.13
2022-08-17T00:15:28.935Z,155440.59
2022-08-17T00:17:56.705Z,155423.69
2022-08-17T00:20:33.459Z,155371.63
2022-08-17T00:23:06.948Z,155349.50
2022-08-17T00:25:35.648Z,155328.69
2022-08-17T00:28:03.730Z,155292.25
2022-08-17T00:30:48.457Z,155275.31
2022-08-17T00:33:22.563Z,155290.97
2022-08-17T00:35:51.392Z,155264.94
2022-08-17T00:38:20.962Z,155238.94
2022-08-17T00:40:51.825Z,155218.13
2022-08-17T00:43:29.743Z,155185.59
2022-08-17T00:45:58.730Z,155168.66
2022-08-17T00:48:30.083Z,155166.06
2022-08-17T00:51:03.948Z,155153.09
2022-08-17T00:53:34.848Z,155125.75
2022-08-17T00:56:06.032Z,155116.66
2022-08-17T00:58:36.377Z,155077.66
2022-08-17T01:01:06.177Z,155069.84
2022-08-17T01:03:35.631Z,155075.06
2022-08-17T01:06:06.563Z,155052.94
2022-08-17T01:08:38.182Z,155037.38
2022-08-17T01:11:06.415Z,155033.44
2022-08-17T01:13:41.083Z,154989.25
2022-08-17T01:16:15.921Z,154977.56
2022-08-17T01:18:44.660Z,154943.75
2022-08-17T01:21:19.410Z,154938.53
2022-08-17T01:23:48.558Z,154950.22
2022-08-17T01:26:17.318Z,154929.44
2022-08-17T01:28:54.621Z,154919.03
2022-08-17T01:31:25.052Z,154891.75
2022-08-17T01:33:53.302Z,154870.97
2022-08-17T01:36:21.279Z,154833.28
2022-08-17T01:38:50.544Z,154835.91
2022-08-17T01:41:19.906Z,154798.22
2022-08-17T01:43:52.088Z,154778.72
2022-08-17T01:46:23.529Z,154778.72
2022-08-17T01:48:51.654Z,154776.13
2022-08-17T01:51:20.239Z,154752.72
2022-08-17T01:53:53.023Z,154778.72
2022-08-17T01:56:24.028Z,154756.63
2022-08-17T01:58:51.889Z,154704.66
2022-08-17T02:01:22.615Z,154666.97
2022-08-17T02:03:53.386Z,154673.47
2022-08-17T02:06:29.402Z,154655.31
2022-08-17T02:09:02.834Z,154594.25
2022-08-17T02:11:34.245Z,154664.38
2022-08-17T02:14:04.102Z,154661.78
2022-08-17T02:16:36.705Z,154656.56
2022-08-17T02:19:05.372Z,154650.09
2022-08-17T02:21:34.019Z,154648.75
2022-08-17T02:24:04.273Z,154647.50
2022-08-17T02:26:32.070Z,154585.19
2022-08-17T02:28:59.786Z,154665.66
2022-08-17T02:31:27.687Z,154651.38
2022-08-17T02:34:00.282Z,154683.84
2022-08-17T02:36:33.913Z,154651.38
2022-08-17T02:39:03.640Z,154741.03
2022-08-17T02:41:31.545Z,154734.56
2022-08-17T02:43:59.653Z,154761.81
2022-08-17T02:46:28.395Z,154751.47
2022-08-17T02:48:56.140Z,154773.50
2022-08-17T02:51:24.141Z,154794.28
2022-08-17T02:53:52.157Z,154793.00
2022-08-17T02:56:21.219Z,154796.88
2022-08-17T02:58:49.205Z,154799.50
2022-08-17T03:01:17.381Z,154808.59
2022-08-17T03:03:45.147Z,154808.59
2022-08-17T03:06:12.883Z,154808.59
2022-08-17T03:08:40.713Z,154821.59
2022-08-17T03:11:08.443Z,154802.09
2022-08-17T03:13:37.640Z,154808.59
2022-08-17T03:16:05.675Z,154791.69
2022-08-17T03:18:33.410Z,154817.66
2022-08-17T03:21:04.298Z,154799.50
2022-08-17T03:23:32.972Z,154805.97
2022-08-17T03:26:01.023Z,154799.50
2022-08-17T03:28:30.158Z,154785.19
2022-08-17T03:30:59.326Z,154770.91
2022-08-17T03:33:27.042Z,154759.22
2022-08-17T03:35:54.796Z,154757.94
2022-08-17T03:38:23.297Z,154726.75
2022-08-17T03:40:57.338Z,154759.22
2022-08-17T03:43:29.350Z,154747.53
2022-08-17T03:46:27.775Z,154729.34
2022-08-17T03:49:19.236Z,154754.06
2022-08-17T03:52:04.499Z,154751.47
2022-08-17T03:54:49.871Z,154752.72
2022-08-17T03:57:18.488Z,154757.94
2022-08-17T03:59:46.237Z,154744.91
2022-08-17T04:02:19.897Z,154751.47
2022-08-17T04:04:50.792Z,154746.25
2022-08-17T04:07:19.533Z,154743.66
2022-08-17T04:09:47.679Z,154733.25
2022-08-17T04:12:16.768Z,154716.38
2022-08-17T04:14:53.329Z,154713.78
2022-08-17T04:17:24.226Z,154709.81
2022-08-17T04:19:54.229Z,154689.03
2022-08-17T04:22:33.264Z,154678.66
2022-08-17T04:25:04.316Z,154665.66
2022-08-17T04:27:32.117Z,154620.25
2022-08-17T04:29:59.859Z,154668.25
2022-08-17T04:33:04.182Z,154643.63
2022-08-17T04:35:21.323Z,154639.69
2022-08-17T04:37:49.501Z,154613.72
2022-08-17T04:40:36.482Z,154608.56
2022-08-17T04:43:07.212Z,154560.50
2022-08-17T04:45:35.445Z,154612.44
2022-08-17T04:48:04.250Z,154617.63
2022-08-17T04:50:34.978Z,154628.00
2022-08-17T04:53:02.983Z,154638.41
2022-08-17T04:55:31.367Z,154643.63
2022-08-17T04:57:59.164Z,154643.63
2022-08-17T05:00:27.295Z,154661.78
2022-08-17T05:02:56.549Z,154700.72
2022-08-17T05:05:26.698Z,154673.47
2022-08-17T05:07:57.742Z,154730.63
2022-08-17T05:10:27.615Z,154756.63
2022-08-17T05:13:00.219Z,154768.31
2022-08-17T05:15:29.067Z,154768.31
2022-08-17T05:18:01.400Z,154778.72
2022-08-17T05:20:30.009Z,154778.72
2022-08-17T05:23:04.498Z,154794.28
2022-08-17T05:25:36.236Z,154794.28
2022-08-17T05:28:06.614Z,154799.50
2022-08-17T05:30:35.056Z,154830.69
2022-08-17T05:33:06.284Z,154820.28
2022-08-17T05:35:37.297Z,154880.06
2022-08-17T05:38:07.985Z,154908.66
2022-08-17T05:40:36.343Z,154965.84
2022-08-17T05:43:09.970Z,154968.47
2022-08-17T05:45:55.448Z,155021.75
2022-08-17T05:48:39.429Z,155050.34
2022-08-17T05:51:22.171Z,155069.84
2022-08-17T05:54:05.411Z,155116.66
2022-08-17T05:56:53.988Z,155155.63
2022-08-17T05:59:36.632Z,155189.50
2022-08-17T06:02:14.176Z,155225.94
2022-08-17T06:04:56.828Z,155270.16
2022-08-17T06:07:33.103Z,155313.03
2022-08-17T06:10:11.782Z,155340.41
2022-08-17T06:12:49.148Z,155370.31
2022-08-17T06:15:29.327Z,155417.19
2022-08-17T06:18:01.763Z,155460.13
2022-08-17T06:20:34.080Z,155492.66
2022-08-17T06:23:05.949Z,155552.53
2022-08-17T06:25:40.669Z,155594.19
2022-08-17T06:28:14.267Z,155634.59
2022-08-17T06:30:59.496Z,155663.19
2022-08-17T06:33:34.223Z,155695.78
2022-08-17T06:36:11.356Z,155714.00
2022-08-17T06:38:54.401Z,155728.31
2022-08-17T06:41:31.462Z,155730.94
2022-08-17T06:44:11.596Z,155726.97
2022-08-17T06:47:04.719Z,155674.94
2022-08-17T06:49:41.699Z,155710.09
2022-08-17T06:52:45.249Z,155725.72
2022-08-17T06:55:18.116Z,155756.97
2022-08-17T06:57:51.979Z,155773.84
2022-08-17T07:00:24.092Z,155777.78
2022-08-17T07:02:56.735Z,155806.44
2022-08-17T07:05:28.018Z,155809.00
2022-08-17T07:08:05.092Z,155842.94
2022-08-17T07:10:38.115Z,155862.50
2022-08-17T07:13:29.334Z,155859.88
2022-08-17T07:16:07.199Z,155848.16
2022-08-17T07:18:35.060Z,155892.44
2022-08-17T07:21:17.552Z,155910.66
2022-08-17T07:24:01.665Z,155947.16
2022-08-17T07:26:29.885Z,155962.78
2022-08-17T07:29:01.967Z,155966.66
2022-08-17T07:31:33.497Z,155978.38
2022-08-17T07:34:07.962Z,156012.28
2022-08-17T07:36:35.892Z,156030.56
2022-08-17T07:39:05.333Z,156060.56
2022-08-17T07:41:57.920Z,156063.13
2022-08-17T07:44:29.042Z,156074.91
2022-08-17T07:47:15.059Z,156106.13
2022-08-17T07:49:45.987Z,156112.63
2022-08-17T07:52:50.895Z,156134.81
2022-08-17T07:55:29.398Z,156163.50
2022-08-17T07:57:58.573Z,156205.19
2022-08-17T08:00:32.395Z,156226.09
2022-08-17T08:03:19.074Z,156220.84
2022-08-17T08:05:53.135Z,156265.22
2022-08-17T08:08:29.191Z,156291.31
2022-08-17T08:11:03.830Z,156317.38
2022-08-17T08:13:33.271Z,156293.88
2022-08-17T08:16:32.275Z,156299.09
2022-08-17T08:19:03.746Z,156275.63
2022-08-17T08:21:41.967Z,156299.09
2022-08-17T08:24:30.994Z,156368.22
2022-08-17T08:27:12.865Z,156458.25
2022-08-17T08:29:50.429Z,156481.72
2022-08-17T08:32:38.988Z,156463.47
2022-08-17T08:35:09.907Z,156386.44
2022-08-17T08:37:48.091Z,156499.97
2022-08-17T08:40:33.734Z,156597.81
2022-08-17T08:43:17.825Z,156613.50
2022-08-17T08:45:56.679Z,156683.97
2022-08-17T08:48:57.825Z,156659.13
2022-08-17T08:51:37.707Z,156664.38
2022-08-17T08:54:17.106Z,156593.91
2022-08-17T08:57:22.246Z,156575.63
2022-08-17T09:00:07.288Z,156468.66
2022-08-17T09:03:03.709Z,156528.66
2022-08-17T09:05:45.159Z,156471.25
2022-08-17T09:08:26.653Z,156528.66
2022-08-17T09:11:04.554Z,156531.28
2022-08-17T09:13:41.331Z,156634.38
2022-08-17T09:16:15.805Z,156653.97
2022-08-17T09:18:59.896Z,156565.16
2022-08-17T09:21:45.784Z,156607.00
2022-08-17T09:24:22.973Z,156597.81
2022-08-17T09:26:58.862Z,156648.72
2022-08-17T09:29:30.534Z,156601.78
2022-08-17T09:32:01.629Z,156604.38
2022-08-17T09:34:35.280Z,156569.09
2022-08-17T09:37:16.819Z,156591.31
2022-08-17T09:39:52.605Z,156505.19
2022-08-17T09:42:27.910Z,156382.56
2022-08-17T09:45:04.781Z,156382.56
2022-08-17T09:47:42.916Z,156451.69
2022-08-17T09:50:16.738Z,156512.97
2022-08-17T09:52:45.824Z,156439.94
2022-08-17T09:55:13.613Z,156498.69
2022-08-17T09:58:00.111Z,156437.38
2022-08-17T10:00:35.410Z,156446.50
2022-08-17T10:03:28.244Z,156460.84
2022-08-17T10:06:06.577Z,156364.31
2022-08-17T10:08:42.679Z,156411.31
2022-08-17T10:11:22.428Z,156372.09
2022-08-17T10:14:37.760Z,156353.84
2022-08-17T10:17:04.407Z,156348.63
2022-08-17T10:19:38.916Z,156400.78
2022-08-17T10:22:34.899Z,156362.97
2022-08-17T10:25:42.642Z,156373.44
2022-08-17T10:28:22.827Z,156387.78
2022-08-17T10:31:16.587Z,156428.22
2022-08-17T10:33:56.368Z,156407.34
2022-08-17T10:36:30.154Z,156382.56
2022-08-17T10:39:08.870Z,156310.81
2022-08-17T10:41:44.118Z,156233.94
2022-08-17T10:44:40.272Z,156258.66
2022-08-17T10:47:11.820Z,156236.53
2022-08-17T10:49:47.531Z,156254.78
2022-08-17T10:52:48.679Z,156292.59
2022-08-17T10:55:18.617Z,156226.09
2022-08-17T10:57:50.676Z,156175.22
2022-08-17T11:01:08.867Z,156207.81
2022-08-17T11:03:36.749Z,156142.66
2022-08-17T11:06:21.508Z,156103.53
2022-08-17T11:09:31.440Z,156070.97
2022-08-17T11:12:16.092Z,156054.00
2022-08-17T11:15:01.377Z,156085.28
2022-08-17T11:17:49.691Z,156103.53
2022-08-17T11:20:54.722Z,156087.91
2022-08-17T11:23:40.685Z,156069.69
2022-08-17T11:26:25.855Z,156084.00
2022-08-17T11:28:59.577Z,156051.41
2022-08-17T11:31:38.940Z,155965.38
2022-08-17T11:34:15.281Z,156003.16
2022-08-17T11:37:02.555Z,155962.78
2022-08-17T11:40:04.936Z,155965.38
2022-08-17T11:42:56.649Z,155932.81
2022-08-17T11:45:54.292Z,155861.16
2022-08-17T11:48:50.170Z,155858.56
2022-08-17T11:51:42.431Z,155900.25
2022-08-17T11:54:33.789Z,155988.81
2022-08-17T11:57:40.893Z,155952.38
2022-08-17T12:00:11.623Z,155977.09
2022-08-17T12:02:47.346Z,156004.44
2022-08-17T12:05:33.932Z,156042.28
2022-08-17T12:08:11.877Z,156064.44
2022-08-17T12:10:52.808Z,156061.84
2022-08-17T12:13:21.850Z,156056.63
2022-08-17T12:15:53.103Z,156095.75
2022-08-17T12:18:24.499Z,156055.34
2022-08-17T12:21:17.653Z,156110.06
2022-08-17T12:23:56.647Z,156162.16
2022-08-17T12:26:27.853Z,156091.78
2022-08-17T12:28:59.993Z,156155.66
2022-08-17T12:31:32.427Z,156244.38
2022-08-17T12:34:00.580Z,156312.16
2022-08-17T12:36:30.473Z,156318.66
2022-08-17T12:39:14.011Z,156387.78
2022-08-17T12:41:46.918Z,156374.72
2022-08-17T12:44:17.443Z,156415.19
2022-08-17T12:46:55.880Z,156303.03
2022-08-17T12:49:27.971Z,156423.03
2022-08-17T12:52:09.503Z,156473.88
2022-08-17T12:54:47.767Z,156510.41
2022-08-17T12:57:19.919Z,156541.69
2022-08-17T12:59:52.877Z,156424.31
2022-08-17T13:02:31.655Z,156406.06
2022-08-17T13:05:02.483Z,156617.41
2022-08-17T13:07:35.536Z,156745.28
2022-08-17T13:10:04.295Z,156763.59
2022-08-17T13:12:34.485Z,156904.53
2022-08-17T13:15:02.978Z,157006.44
2022-08-17T13:17:35.768Z,156969.91
2022-08-17T13:20:06.693Z,157045.63
2022-08-17T13:22:36.051Z,157050.81
2022-08-17T13:25:08.490Z,157199.75
2022-08-17T13:27:36.542Z,157262.53
2022-08-17T13:30:11.614Z,157229.78
2022-08-17T13:32:44.107Z,157112.25
2022-08-17T13:35:44.265Z,157056.06
2022-08-17T13:38:40.477Z,157287.34
2022-08-17T13:41:08.886Z,157320.00
2022-08-17T13:43:49.542Z,157265.16
2022-08-17T13:46:22.794Z,157415.41
2022-08-17T13:48:59.666Z,157411.50
2022-08-17T13:51:31.095Z,157227.22
2022-08-17T13:54:19.958Z,157184.09
2022-08-17T13:56:55.523Z,157031.28
2022-08-17T13:59:36.353Z,157244.16
2022-08-17T14:02:20.512Z,157380.13
2022-08-17T14:04:49.525Z,157385.38
2022-08-17T14:07:34.307Z,157414.06
2022-08-17T14:10:07.811Z,157504.31
2022-08-17T14:12:38.471Z,157435.06
2022-08-17T14:15:06.925Z,157261.16
2022-08-17T14:17:38.634Z,157397.13
2022-08-17T14:20:09.478Z,157429.84
2022-08-17T14:22:39.841Z,157543.56
2022-08-17T14:25:10.482Z,157564.47
2022-08-17T14:27:51.730Z,157472.94
2022-08-17T14:30:22.044Z,157573.59
2022-08-17T14:32:51.784Z,157474.25
2022-08-17T14:35:22.197Z,157465.13
2022-08-17T14:37:50.211Z,157321.34
2022-08-17T14:40:24.455Z,157356.59
2022-08-17T14:42:54.408Z,157312.19
2022-08-17T14:45:29.592Z,157333.09
2022-08-17T14:48:02.784Z,157212.84
2022-08-17T14:50:31.815Z,157261.16
2022-08-17T14:53:01.598Z,157269.06
2022-08-17T14:55:32.523Z,157309.56
2022-08-17T14:58:00.430Z,157238.97
2022-08-17T15:00:28.575Z,157266.44
2022-08-17T15:02:58.744Z,157337.00
2022-08-17T15:05:31.448Z,157110.97
2022-08-17T15:07:59.596Z,157133.16
2022-08-17T15:10:27.870Z,157097.84
2022-08-17T15:12:57.646Z,157007.78
2022-08-17T15:15:26.386Z,156982.94
2022-08-17T15:17:54.151Z,157069.13
2022-08-17T15:20:27.627Z,157040.41
2022-08-17T15:22:57.162Z,157054.78
2022-08-17T15:25:25.970Z,157050.81
2022-08-17T15:27:54.044Z,157079.56
2022-08-17T15:30:23.258Z,157037.78
2022-08-17T15:32:54.912Z,157043.03
2022-08-17T15:35:28.324Z,156972.53
2022-08-17T15:37:58.163Z,156982.94
2022-08-17T15:40:26.212Z,156955.53
2022-08-17T15:42:54.067Z,156942.47
2022-08-17T15:45:28.257Z,156899.38
2022-08-17T15:47:56.031Z,156887.63
2022-08-17T15:50:23.902Z,156980.31
2022-08-17T15:52:56.803Z,156996.03
2022-08-17T15:55:24.991Z,156992.06
2022-08-17T15:57:53.272Z,156988.16
2022-08-17T16:00:24.090Z,156951.59
2022-08-17T16:03:13.615Z,156814.53
2022-08-17T16:05:40.707Z,156757.03
2022-08-17T16:08:08.882Z,156870.63
2022-08-17T16:10:37.188Z,156653.97
2022-08-17T16:13:05.858Z,156596.53
2022-08-17T16:15:56.852Z,156704.81
2022-08-17T16:18:26.638Z,156758.31
2022-08-17T16:20:54.978Z,156797.53
2022-08-17T16:23:22.900Z,156622.63
2022-08-17T16:25:53.497Z,156629.16
2022-08-17T16:28:35.730Z,156716.56
2022-08-17T16:31:08.230Z,156631.75
2022-08-17T16:33:37.615Z,156601.78
2022-08-17T16:36:07.190Z,156656.56
2022-08-17T16:38:35.757Z,156648.72
2022-08-17T16:41:04.952Z,156629.16
2022-08-17T16:43:33.135Z,156599.16
2022-08-17T16:46:01.738Z,156566.50
2022-08-17T16:48:31.430Z,156588.69
2022-08-17T16:51:03.120Z,156627.84
2022-08-17T16:53:32.240Z,156638.28
2022-08-17T16:56:00.109Z,156689.19
2022-08-17T16:58:29.073Z,156686.56
2022-08-17T17:00:59.301Z,156659.13
2022-08-17T17:03:31.853Z,156635.66
2022-08-17T17:06:08.150Z,156617.41
2022-08-17T17:08:43.729Z,156554.75
2022-08-17T17:11:15.518Z,156553.44
2022-08-17T17:13:48.007Z,156529.94
2022-08-17T17:16:21.578Z,156523.44
2022-08-17T17:19:09.115Z,156529.94
2022-08-17T17:21:44.557Z,156541.69
2022-08-17T17:24:17.622Z,156518.22
2022-08-17T17:27:01.401Z,156484.34
2022-08-17T17:29:47.821Z,156506.47
2022-08-17T17:32:22.650Z,156510.41
2022-08-17T17:34:58.881Z,156483.00
2022-08-17T17:37:33.347Z,156464.75
2022-08-17T17:40:05.812Z,156455.63
2022-08-17T17:42:34.090Z,156455.63
2022-08-17T17:45:07.891Z,156438.66
2022-08-17T17:47:36.258Z,156429.53
2022-08-17T17:50:07.196Z,156395.56
2022-08-17T17:52:42.389Z,156411.31
2022-08-17T17:55:25.918Z,156419.09
2022-08-17T17:58:03.686Z,156349.97
2022-08-17T18:00:39.500Z,156340.84
2022-08-17T18:03:19.852Z,156291.31
2022-08-17T18:06:10.402Z,156267.84
2022-08-17T18:08:50.227Z,156218.25
2022-08-17T18:11:44.356Z,156218.25
2022-08-17T18:14:28.021Z,156194.78
2022-08-17T18:16:57.888Z,156205.19
2022-08-17T18:19:28.415Z,156176.50
2022-08-17T18:22:15.031Z,156177.84
2022-08-17T18:24:45.093Z,156173.91
2022-08-17T18:27:23.231Z,156119.19
2022-08-17T18:29:53.255Z,156155.66
2022-08-17T18:32:36.348Z,156146.53
2022-08-17T18:35:39.323Z,156108.75
2022-08-17T18:38:22.394Z,156059.22
2022-08-17T18:41:00.815Z,156031.88
2022-08-17T18:43:43.757Z,156026.63
2022-08-17T18:46:29.675Z,156024.00
2022-08-17T18:49:00.488Z,156001.88
2022-08-17T18:51:40.804Z,155981.00
2022-08-17T18:54:23.188Z,155928.94
2022-08-17T18:56:54.587Z,155897.66
2022-08-17T18:59:33.563Z,155905.44
2022-08-17T19:02:27.331Z,155889.81
2022-08-17T19:05:10.525Z,155853.38
2022-08-17T19:07:42.253Z,155836.44
2022-08-17T19:10:24.163Z,155835.13
2022-08-17T19:13:00.461Z,155811.63
2022-08-17T19:15:33.982Z,155798.63
2022-08-17T19:18:06.768Z,155783.00
2022-08-17T19:20:39.527Z,155766.06
2022-08-17T19:23:17.773Z,155747.81
2022-08-17T19:25:50.481Z,155700.94
2022-08-17T19:28:25.674Z,155697.06
2022-08-17T19:30:59.407Z,155661.91
2022-08-17T19:33:27.773Z,155631.97
2022-08-17T19:36:04.157Z,155603.28
2022-08-17T19:38:45.708Z,155582.47
2022-08-17T19:41:21.722Z,155516.06
2022-08-17T19:43:59.038Z,155464.03
2022-08-17T19:46:36.677Z,155456.25
2022-08-17T19:49:16.961Z,155405.44
2022-08-17T19:51:50.554Z,155389.81
2022-08-17T19:54:25.465Z,155352.09
2022-08-17T19:57:03.204Z,155344.28
2022-08-17T19:59:48.846Z,155296.19
2022-08-17T20:02:35.755Z,155277.94
2022-08-17T20:05:09.476Z,155251.91
2022-08-17T20:07:45.425Z,155254.53
2022-08-17T20:10:20.202Z,155201.22
2022-08-17T20:12:53.360Z,155192.13
2022-08-17T20:15:28.311Z,155177.75
2022-08-17T20:17:59.905Z,155179.03
2022-08-17T20:20:36.039Z,155143.94
2022-08-17T20:23:12.311Z,155119.25
2022-08-17T20:25:47.342Z,155112.78
2022-08-17T20:28:24.308Z,155097.13
2022-08-17T20:30:53.486Z,155077.66
2022-08-17T20:33:27.307Z,155050.34
2022-08-17T20:36:05.966Z,155041.25
2022-08-17T20:38:42.427Z,155024.34
2022-08-17T20:41:16.082Z,155010.03
2022-08-17T20:43:52.273Z,154980.16
2022-08-17T20:46:32.850Z,154978.88
2022-08-17T20:49:16.461Z,154991.84
2022-08-17T20:52:01.538Z,154967.19
2022-08-17T20:54:46.889Z,154974.94
2022-08-17T20:57:47.286Z,154986.66
2022-08-17T21:00:43.116Z,155008.75
2022-08-17T21:03:51.261Z,154985.38
2022-08-17T21:06:23.398Z,154974.94
2022-08-17T21:09:09.935Z,154993.19
2022-08-17T21:12:04.601Z,154980.16
2022-08-17T21:15:02.204Z,154960.66
2022-08-17T21:17:44.597Z,154908.66
2022-08-17T21:20:28.139Z,154908.66
2022-08-17T21:23:18.464Z,154903.44
2022-08-17T21:26:29.667Z,154887.81
2022-08-17T21:29:32.339Z,154885.28
2022-08-17T21:32:23.696Z,154854.06
2022-08-17T21:35:26.709Z,154856.69
2022-08-17T21:38:00.637Z,154854.06
2022-08-17T21:40:31.117Z,154822.88
2022-08-17T21:43:04.871Z,154816.38
2022-08-17T21:45:36.401Z,154747.53
2022-08-17T21:48:11.118Z,154783.91
2022-08-17T21:50:40.581Z,154755.34
2022-08-17T21:53:14.443Z,154760.53
2022-08-17T21:55:42.262Z,154748.84
2022-08-17T21:58:29.181Z,154729.34
2022-08-17T22:01:20.851Z,154726.75
2022-08-17T22:03:59.767Z,154724.16
2022-08-17T22:06:30.828Z,154698.13
2022-08-17T22:09:03.491Z,154687.75
2022-08-17T22:11:31.574Z,154682.56
2022-08-17T22:14:05.306Z,154672.13
2022-08-17T22:16:33.822Z,154639.69
2022-08-17T22:19:01.860Z,154637.09
2022-08-17T22:21:29.632Z,154615.03
2022-08-17T22:24:04.888Z,154613.72
2022-08-17T22:26:59.687Z,154592.94
2022-08-17T22:29:57.617Z,154595.53
2022-08-17T22:32:35.468Z,154589.06
2022-08-17T22:35:31.410Z,154579.97
2022-08-17T22:38:29.596Z,154556.63
2022-08-17T22:41:17.918Z,154525.44
2022-08-17T22:43:45.843Z,154546.19
2022-08-17T22:46:14.980Z,154534.53
2022-08-17T22:48:48.692Z,154535.84
2022-08-17T22:51:21.321Z,154529.31
2022-08-17T22:54:09.253Z,154529.31
2022-08-17T22:56:55.893Z,154507.28
2022-08-17T22:59:51.558Z,154485.19
2022-08-17T23:02:23.519Z,154477.38
2022-08-17T23:04:54.075Z,154490.38
2022-08-17T23:07:24.241Z,154465.69
2022-08-17T23:09:54.630Z,154452.69
2022-08-17T23:12:27.506Z,154443.63
2022-08-17T23:15:01.556Z,154434.53
2022-08-17T23:17:32.876Z,154430.59
2022-08-17T23:20:05.513Z,154435.81
2022-08-17T23:22:34.107Z,154426.72
2022-08-17T23:25:02.551Z,154417.66
2022-08-17T23:27:32.084Z,154390.41
2022-08-17T23:29:59.759Z,154394.28
2022-08-17T23:32:28.132Z,154391.69
2022-08-17T23:34:56.587Z,154363.13
2022-08-17T23:37:27.131Z,154343.72
2022-08-17T23:39:54.921Z,154337.19
2022-08-17T23:42:22.710Z,154341.09
2022-08-17T23:44:51.849Z,154333.31
2022-08-17T23:47:19.655Z,154339.78
2022-08-17T23:49:47.418Z,154342.38
2022-08-17T23:52:16.648Z,154341.09
2022-08-17T23:54:46.586Z,154339.78
2022-08-17T23:57:16.560Z,154328.09
2022-08-17T23:59:44.815Z,154294.41
